sensor_id;sensor_type;location;lat;lon;timestamp;P1;durP1;ratioP1;P2;durP2;ratioP2
16839;SDS011;8536;52.150;11.572;2023-03-01T00:01:17;7.20;;;3.87;;
16839;SDS011;8536;52.150;11.572;2023-03-01T00:03:45;6.40;;;3.70;;
16839;SDS011;8536;52.150;11.572;2023-03-01T00:06:12;7.23;;;3.80;;
16839;SDS011;8536;52.150;11.572;2023-03-01T00:08:38;6.40;;;3.83;;
16839;SDS011;8536;52.150;11.572;2023-03-01T00:11:06;6.27;;;3.83;;
16839;SDS011;8536;52.150;11.572;2023-03-01T00:13:39;6.40;;;4.10;;
16839;SDS011;8536;52.150;11.572;2023-03-01T00:16:06;6.17;;;3.30;;
16839;SDS011;8536;52.150;11.572;2023-03-01T00:18:34;6.43;;;3.90;;
16839;SDS011;8536;52.150;11.572;2023-03-01T00:21:01;4.23;;;3.50;;
16839;SDS011;8536;52.150;11.572;2023-03-01T00:23:27;6.77;;;3.63;;
16839;SDS011;8536;52.150;11.572;2023-03-01T00:25:54;5.50;;;3.47;;
16839;SDS011;8536;52.150;11.572;2023-03-01T00:28:21;5.00;;;3.70;;
16839;SDS011;8536;52.150;11.572;2023-03-01T00:30:47;5.33;;;3.90;;
16839;SDS011;8536;52.150;11.572;2023-03-01T00:33:14;5.90;;;3.90;;
16839;SDS011;8536;52.150;11.572;2023-03-01T00:35:40;4.97;;;3.83;;
16839;SDS011;8536;52.150;11.572;2023-03-01T00:38:07;6.50;;;3.67;;
16839;SDS011;8536;52.150;11.572;2023-03-01T00:40:34;6.10;;;3.77;;
16839;SDS011;8536;52.150;11.572;2023-03-01T00:43:01;5.93;;;3.70;;
16839;SDS011;8536;52.150;11.572;2023-03-01T00:45:29;6.43;;;3.70;;
16839;SDS011;8536;52.150;11.572;2023-03-01T00:47:57;5.50;;;3.20;;
16839;SDS011;8536;52.150;11.572;2023-03-01T00:50:23;5.80;;;3.83;;
16839;SDS011;8536;52.150;11.572;2023-03-01T00:52:53;5.97;;;3.70;;
16839;SDS011;8536;52.150;11.572;2023-03-01T00:55:21;6.13;;;4.03;;
16839;SDS011;8536;52.150;11.572;2023-03-01T00:57:47;4.97;;;3.23;;
16839;SDS011;8536;52.150;11.572;2023-03-01T01:00:14;5.37;;;3.73;;
16839;SDS011;8536;52.150;11.572;2023-03-01T01:02:40;5.73;;;3.70;;
16839;SDS011;8536;52.150;11.572;2023-03-01T01:05:07;8.60;;;3.63;;
16839;SDS011;8536;52.150;11.572;2023-03-01T01:07:33;6.13;;;4.17;;
16839;SDS011;8536;52.150;11.572;2023-03-01T01:10:00;6.70;;;4.00;;
16839;SDS011;8536;52.150;11.572;2023-03-01T01:12:27;7.13;;;4.27;;
16839;SDS011;8536;52.150;11.572;2023-03-01T01:14:53;6.30;;;4.33;;
16839;SDS011;8536;52.150;11.572;2023-03-01T01:17:19;6.07;;;4.03;;
16839;SDS011;8536;52.150;11.572;2023-03-01T01:19:46;5.77;;;4.07;;
16839;SDS011;8536;52.150;11.572;2023-03-01T01:22:12;6.70;;;3.80;;
16839;SDS011;8536;52.150;11.572;2023-03-01T01:24:39;6.23;;;3.90;;
16839;SDS011;8536;52.150;11.572;2023-03-01T01:27:05;6.97;;;4.30;;
16839;SDS011;8536;52.150;11.572;2023-03-01T01:29:33;5.30;;;3.57;;
16839;SDS011;8536;52.150;11.572;2023-03-01T01:31:59;5.63;;;3.90;;
16839;SDS011;8536;52.150;11.572;2023-03-01T01:34:26;5.83;;;3.67;;
16839;SDS011;8536;52.150;11.572;2023-03-01T01:36:52;8.10;;;3.67;;
16839;SDS011;8536;52.150;11.572;2023-03-01T01:39:20;5.47;;;3.87;;
16839;SDS011;8536;52.150;11.572;2023-03-01T01:41:47;4.17;;;3.27;;
16839;SDS011;8536;52.150;11.572;2023-03-01T01:44:18;5.00;;;4.20;;
16839;SDS011;8536;52.150;11.572;2023-03-01T01:46:47;5.93;;;3.73;;
16839;SDS011;8536;52.150;11.572;2023-03-01T01:49:24;5.13;;;3.23;;
16839;SDS011;8536;52.150;11.572;2023-03-01T01:51:57;5.33;;;3.90;;
16839;SDS011;8536;52.150;11.572;2023-03-01T01:57:13;6.60;;;4.30;;
16839;SDS011;8536;52.150;11.572;2023-03-01T01:59:42;10.83;;;4.73;;
16839;SDS011;8536;52.150;11.572;2023-03-01T02:02:10;5.83;;;4.20;;
16839;SDS011;8536;52.150;11.572;2023-03-01T02:04:37;7.37;;;4.50;;
16839;SDS011;8536;52.150;11.572;2023-03-01T02:07:14;7.27;;;4.60;;
16839;SDS011;8536;52.150;11.572;2023-03-01T02:09:49;9.00;;;4.80;;
16839;SDS011;8536;52.150;11.572;2023-03-01T02:12:17;7.60;;;4.57;;
16839;SDS011;8536;52.150;11.572;2023-03-01T02:14:44;8.73;;;4.63;;
16839;SDS011;8536;52.150;11.572;2023-03-01T02:17:11;6.20;;;4.07;;
16839;SDS011;8536;52.150;11.572;2023-03-01T02:19:44;7.57;;;4.03;;
16839;SDS011;8536;52.150;11.572;2023-03-01T02:22:31;7.67;;;4.30;;
16839;SDS011;8536;52.150;11.572;2023-03-01T02:25:02;7.30;;;4.30;;
16839;SDS011;8536;52.150;11.572;2023-03-01T02:27:34;6.03;;;3.90;;
16839;SDS011;8536;52.150;11.572;2023-03-01T02:30:04;6.23;;;3.57;;
16839;SDS011;8536;52.150;11.572;2023-03-01T02:32:32;6.47;;;4.03;;
16839;SDS011;8536;52.150;11.572;2023-03-01T02:34:59;6.33;;;4.20;;
16839;SDS011;8536;52.150;11.572;2023-03-01T02:37:25;6.43;;;3.63;;
16839;SDS011;8536;52.150;11.572;2023-03-01T02:39:58;5.87;;;3.87;;
16839;SDS011;8536;52.150;11.572;2023-03-01T02:42:27;6.40;;;4.20;;
16839;SDS011;8536;52.150;11.572;2023-03-01T02:44:57;6.47;;;3.70;;
16839;SDS011;8536;52.150;11.572;2023-03-01T02:47:23;5.13;;;3.93;;
16839;SDS011;8536;52.150;11.572;2023-03-01T02:49:50;6.00;;;4.07;;
16839;SDS011;8536;52.150;11.572;2023-03-01T02:55:00;5.13;;;3.97;;
16839;SDS011;8536;52.150;11.572;2023-03-01T02:57:29;6.30;;;3.90;;
16839;SDS011;8536;52.150;11.572;2023-03-01T02:59:59;5.37;;;3.63;;
16839;SDS011;8536;52.150;11.572;2023-03-01T03:02:28;7.47;;;4.00;;
16839;SDS011;8536;52.150;11.572;2023-03-01T03:05:10;11.30;;;3.97;;
16839;SDS011;8536;52.150;11.572;2023-03-01T03:07:39;8.37;;;4.23;;
16839;SDS011;8536;52.150;11.572;2023-03-01T03:10:08;7.60;;;4.73;;
16839;SDS011;8536;52.150;11.572;2023-03-01T03:12:37;10.07;;;5.10;;
16839;SDS011;8536;52.150;11.572;2023-03-01T03:15:05;6.67;;;4.40;;
16839;SDS011;8536;52.150;11.572;2023-03-01T03:17:35;6.87;;;4.70;;
16839;SDS011;8536;52.150;11.572;2023-03-01T03:20:03;7.57;;;4.90;;
16839;SDS011;8536;52.150;11.572;2023-03-01T03:22:31;7.37;;;4.97;;
16839;SDS011;8536;52.150;11.572;2023-03-01T03:24:59;6.80;;;4.60;;
16839;SDS011;8536;52.150;11.572;2023-03-01T03:27:27;6.93;;;4.50;;
16839;SDS011;8536;52.150;11.572;2023-03-01T03:29:53;9.73;;;5.00;;
16839;SDS011;8536;52.150;11.572;2023-03-01T03:32:20;9.47;;;4.63;;
16839;SDS011;8536;52.150;11.572;2023-03-01T03:34:46;6.23;;;4.93;;
16839;SDS011;8536;52.150;11.572;2023-03-01T03:37:13;8.87;;;4.70;;
16839;SDS011;8536;52.150;11.572;2023-03-01T03:39:59;5.93;;;4.33;;
16839;SDS011;8536;52.150;11.572;2023-03-01T03:42:26;7.43;;;4.90;;
16839;SDS011;8536;52.150;11.572;2023-03-01T03:44:52;10.43;;;4.77;;
16839;SDS011;8536;52.150;11.572;2023-03-01T03:47:18;9.20;;;5.03;;
16839;SDS011;8536;52.150;11.572;2023-03-01T03:49:45;6.80;;;4.57;;
16839;SDS011;8536;52.150;11.572;2023-03-01T03:52:11;6.63;;;4.23;;
16839;SDS011;8536;52.150;11.572;2023-03-01T03:54:40;8.10;;;4.83;;
16839;SDS011;8536;52.150;11.572;2023-03-01T03:57:06;5.33;;;4.37;;
16839;SDS011;8536;52.150;11.572;2023-03-01T03:59:33;7.47;;;4.27;;
16839;SDS011;8536;52.150;11.572;2023-03-01T04:01:59;6.03;;;4.23;;
16839;SDS011;8536;52.150;11.572;2023-03-01T04:04:26;7.30;;;4.67;;
16839;SDS011;8536;52.150;11.572;2023-03-01T04:06:52;7.80;;;4.43;;
16839;SDS011;8536;52.150;11.572;2023-03-01T04:09:19;6.83;;;4.83;;
16839;SDS011;8536;52.150;11.572;2023-03-01T04:14:20;8.40;;;4.63;;
16839;SDS011;8536;52.150;11.572;2023-03-01T04:16:47;6.27;;;4.50;;
16839;SDS011;8536;52.150;11.572;2023-03-01T04:19:13;6.30;;;4.20;;
16839;SDS011;8536;52.150;11.572;2023-03-01T04:21:41;6.37;;;3.93;;
16839;SDS011;8536;52.150;11.572;2023-03-01T04:24:07;7.90;;;4.37;;
16839;SDS011;8536;52.150;11.572;2023-03-01T04:26:35;7.37;;;4.37;;
16839;SDS011;8536;52.150;11.572;2023-03-01T04:29:02;6.67;;;4.43;;
16839;SDS011;8536;52.150;11.572;2023-03-01T04:31:28;6.20;;;4.60;;
16839;SDS011;8536;52.150;11.572;2023-03-01T04:33:55;7.83;;;4.63;;
16839;SDS011;8536;52.150;11.572;2023-03-01T04:36:23;8.77;;;5.20;;
16839;SDS011;8536;52.150;11.572;2023-03-01T04:38:51;7.83;;;4.00;;
16839;SDS011;8536;52.150;11.572;2023-03-01T04:41:18;7.63;;;4.37;;
16839;SDS011;8536;52.150;11.572;2023-03-01T04:43:46;5.00;;;3.73;;
16839;SDS011;8536;52.150;11.572;2023-03-01T04:46:14;5.80;;;3.80;;
16839;SDS011;8536;52.150;11.572;2023-03-01T04:48:42;6.50;;;4.13;;
16839;SDS011;8536;52.150;11.572;2023-03-01T04:51:10;5.90;;;4.13;;
16839;SDS011;8536;52.150;11.572;2023-03-01T04:53:39;8.97;;;4.00;;
16839;SDS011;8536;52.150;11.572;2023-03-01T04:56:06;6.80;;;3.83;;
16839;SDS011;8536;52.150;11.572;2023-03-01T04:58:33;5.97;;;3.53;;
16839;SDS011;8536;52.150;11.572;2023-03-01T05:00:59;5.30;;;3.20;;
16839;SDS011;8536;52.150;11.572;2023-03-01T05:03:26;6.13;;;3.80;;
16839;SDS011;8536;52.150;11.572;2023-03-01T05:05:53;4.57;;;3.27;;
16839;SDS011;8536;52.150;11.572;2023-03-01T05:08:19;5.70;;;4.03;;
16839;SDS011;8536;52.150;11.572;2023-03-01T05:10:50;5.63;;;3.70;;
16839;SDS011;8536;52.150;11.572;2023-03-01T05:13:18;8.90;;;4.20;;
16839;SDS011;8536;52.150;11.572;2023-03-01T05:15:49;7.97;;;4.10;;
16839;SDS011;8536;52.150;11.572;2023-03-01T05:18:20;7.70;;;4.60;;
16839;SDS011;8536;52.150;11.572;2023-03-01T05:20:47;6.77;;;3.77;;
16839;SDS011;8536;52.150;11.572;2023-03-01T05:23:13;8.23;;;4.03;;
16839;SDS011;8536;52.150;11.572;2023-03-01T05:25:40;6.23;;;4.07;;
16839;SDS011;8536;52.150;11.572;2023-03-01T05:28:07;4.73;;;3.80;;
16839;SDS011;8536;52.150;11.572;2023-03-01T05:30:37;4.80;;;3.50;;
16839;SDS011;8536;52.150;11.572;2023-03-01T05:33:07;5.43;;;3.53;;
16839;SDS011;8536;52.150;11.572;2023-03-01T05:35:40;6.37;;;4.00;;
16839;SDS011;8536;52.150;11.572;2023-03-01T05:38:11;7.63;;;4.07;;
16839;SDS011;8536;52.150;11.572;2023-03-01T05:40:41;6.00;;;4.00;;
16839;SDS011;8536;52.150;11.572;2023-03-01T05:43:10;7.77;;;3.73;;
16839;SDS011;8536;52.150;11.572;2023-03-01T05:45:37;6.73;;;4.20;;
16839;SDS011;8536;52.150;11.572;2023-03-01T05:48:05;9.37;;;4.10;;
16839;SDS011;8536;52.150;11.572;2023-03-01T05:50:32;6.40;;;3.40;;
16839;SDS011;8536;52.150;11.572;2023-03-01T05:53:01;5.57;;;3.40;;
16839;SDS011;8536;52.150;11.572;2023-03-01T05:55:32;6.60;;;3.97;;
16839;SDS011;8536;52.150;11.572;2023-03-01T05:57:59;7.67;;;4.30;;
16839;SDS011;8536;52.150;11.572;2023-03-01T06:00:29;5.70;;;4.00;;
16839;SDS011;8536;52.150;11.572;2023-03-01T06:02:56;5.93;;;4.10;;
16839;SDS011;8536;52.150;11.572;2023-03-01T06:05:24;6.67;;;4.33;;
16839;SDS011;8536;52.150;11.572;2023-03-01T06:07:51;9.43;;;5.10;;
16839;SDS011;8536;52.150;11.572;2023-03-01T06:10:19;7.00;;;4.20;;
16839;SDS011;8536;52.150;11.572;2023-03-01T06:12:47;7.30;;;4.57;;
16839;SDS011;8536;52.150;11.572;2023-03-01T06:15:14;5.73;;;4.23;;
16839;SDS011;8536;52.150;11.572;2023-03-01T06:17:42;6.03;;;3.93;;
16839;SDS011;8536;52.150;11.572;2023-03-01T06:20:10;6.83;;;4.20;;
16839;SDS011;8536;52.150;11.572;2023-03-01T06:22:38;6.50;;;3.90;;
16839;SDS011;8536;52.150;11.572;2023-03-01T06:25:04;5.83;;;4.10;;
16839;SDS011;8536;52.150;11.572;2023-03-01T06:27:31;5.87;;;3.90;;
16839;SDS011;8536;52.150;11.572;2023-03-01T06:29:58;5.03;;;3.73;;
16839;SDS011;8536;52.150;11.572;2023-03-01T06:32:24;7.10;;;3.93;;
16839;SDS011;8536;52.150;11.572;2023-03-01T06:34:51;4.80;;;3.60;;
16839;SDS011;8536;52.150;11.572;2023-03-01T06:37:17;6.10;;;4.07;;
16839;SDS011;8536;52.150;11.572;2023-03-01T06:39:44;6.63;;;3.63;;
16839;SDS011;8536;52.150;11.572;2023-03-01T06:42:10;5.77;;;3.97;;
16839;SDS011;8536;52.150;11.572;2023-03-01T06:44:37;6.10;;;3.83;;
16839;SDS011;8536;52.150;11.572;2023-03-01T06:47:04;6.67;;;4.10;;
16839;SDS011;8536;52.150;11.572;2023-03-01T06:49:30;6.23;;;3.90;;
16839;SDS011;8536;52.150;11.572;2023-03-01T06:51:57;5.73;;;4.00;;
16839;SDS011;8536;52.150;11.572;2023-03-01T06:54:23;6.37;;;3.60;;
16839;SDS011;8536;52.150;11.572;2023-03-01T06:56:50;5.63;;;4.07;;
16839;SDS011;8536;52.150;11.572;2023-03-01T06:59:16;4.80;;;4.00;;
16839;SDS011;8536;52.150;11.572;2023-03-01T07:01:44;5.37;;;3.90;;
16839;SDS011;8536;52.150;11.572;2023-03-01T07:04:12;6.63;;;4.00;;
16839;SDS011;8536;52.150;11.572;2023-03-01T07:06:39;5.23;;;3.37;;
16839;SDS011;8536;52.150;11.572;2023-03-01T07:09:05;10.40;;;4.43;;
16839;SDS011;8536;52.150;11.572;2023-03-01T07:11:32;6.13;;;4.27;;
16839;SDS011;8536;52.150;11.572;2023-03-01T07:13:58;7.40;;;4.20;;
16839;SDS011;8536;52.150;11.572;2023-03-01T07:16:26;5.23;;;3.87;;
16839;SDS011;8536;52.150;11.572;2023-03-01T07:18:52;5.70;;;4.07;;
16839;SDS011;8536;52.150;11.572;2023-03-01T07:21:19;7.70;;;4.73;;
16839;SDS011;8536;52.150;11.572;2023-03-01T07:23:47;6.47;;;4.03;;
16839;SDS011;8536;52.150;11.572;2023-03-01T07:26:14;6.30;;;3.93;;
16839;SDS011;8536;52.150;11.572;2023-03-01T07:28:40;7.90;;;4.70;;
16839;SDS011;8536;52.150;11.572;2023-03-01T07:31:07;8.33;;;4.87;;
16839;SDS011;8536;52.150;11.572;2023-03-01T07:33:33;6.13;;;4.40;;
16839;SDS011;8536;52.150;11.572;2023-03-01T07:36:00;7.27;;;4.50;;
16839;SDS011;8536;52.150;11.572;2023-03-01T07:38:28;6.80;;;4.67;;
16839;SDS011;8536;52.150;11.572;2023-03-01T07:40:59;8.43;;;4.63;;
16839;SDS011;8536;52.150;11.572;2023-03-01T07:43:27;9.57;;;4.40;;
16839;SDS011;8536;52.150;11.572;2023-03-01T07:45:54;6.93;;;4.43;;
16839;SDS011;8536;52.150;11.572;2023-03-01T07:48:20;7.20;;;4.70;;
16839;SDS011;8536;52.150;11.572;2023-03-01T07:50:47;8.23;;;4.80;;
16839;SDS011;8536;52.150;11.572;2023-03-01T07:53:13;8.43;;;5.13;;
16839;SDS011;8536;52.150;11.572;2023-03-01T07:55:40;10.23;;;5.83;;
16839;SDS011;8536;52.150;11.572;2023-03-01T07:58:06;7.63;;;4.93;;
16839;SDS011;8536;52.150;11.572;2023-03-01T08:00:33;7.83;;;4.97;;
16839;SDS011;8536;52.150;11.572;2023-03-01T08:03:00;9.43;;;4.27;;
16839;SDS011;8536;52.150;11.572;2023-03-01T08:05:27;7.27;;;4.50;;
16839;SDS011;8536;52.150;11.572;2023-03-01T08:07:54;7.73;;;4.90;;
16839;SDS011;8536;52.150;11.572;2023-03-01T08:10:21;7.60;;;5.33;;
16839;SDS011;8536;52.150;11.572;2023-03-01T08:12:47;6.67;;;4.97;;
16839;SDS011;8536;52.150;11.572;2023-03-01T08:15:14;10.40;;;5.73;;
16839;SDS011;8536;52.150;11.572;2023-03-01T08:17:40;8.43;;;5.83;;
16839;SDS011;8536;52.150;11.572;2023-03-01T08:20:07;9.17;;;5.30;;
16839;SDS011;8536;52.150;11.572;2023-03-01T08:22:35;11.60;;;5.37;;
16839;SDS011;8536;52.150;11.572;2023-03-01T08:25:01;9.83;;;5.30;;
16839;SDS011;8536;52.150;11.572;2023-03-01T08:27:28;8.17;;;4.93;;
16839;SDS011;8536;52.150;11.572;2023-03-01T08:29:54;8.33;;;5.40;;
16839;SDS011;8536;52.150;11.572;2023-03-01T08:32:21;8.03;;;4.83;;
16839;SDS011;8536;52.150;11.572;2023-03-01T08:34:48;9.07;;;5.13;;
16839;SDS011;8536;52.150;11.572;2023-03-01T08:37:14;7.07;;;5.30;;
16839;SDS011;8536;52.150;11.572;2023-03-01T08:39:41;8.40;;;6.00;;
16839;SDS011;8536;52.150;11.572;2023-03-01T08:42:07;9.87;;;5.37;;
16839;SDS011;8536;52.150;11.572;2023-03-01T08:44:34;8.23;;;5.00;;
16839;SDS011;8536;52.150;11.572;2023-03-01T08:47:01;8.07;;;5.30;;
16839;SDS011;8536;52.150;11.572;2023-03-01T08:49:28;6.70;;;4.77;;
16839;SDS011;8536;52.150;11.572;2023-03-01T08:51:54;9.63;;;5.33;;
16839;SDS011;8536;52.150;11.572;2023-03-01T08:54:21;8.47;;;4.30;;
16839;SDS011;8536;52.150;11.572;2023-03-01T08:56:48;6.57;;;4.47;;
16839;SDS011;8536;52.150;11.572;2023-03-01T08:59:17;8.97;;;5.13;;
16839;SDS011;8536;52.150;11.572;2023-03-01T09:01:44;7.97;;;5.10;;
16839;SDS011;8536;52.150;11.572;2023-03-01T09:04:11;5.87;;;4.10;;
16839;SDS011;8536;52.150;11.572;2023-03-01T09:06:38;6.37;;;4.50;;
16839;SDS011;8536;52.150;11.572;2023-03-01T09:09:05;6.60;;;4.90;;
16839;SDS011;8536;52.150;11.572;2023-03-01T09:11:32;7.47;;;4.60;;
16839;SDS011;8536;52.150;11.572;2023-03-01T09:13:59;6.80;;;4.53;;
16839;SDS011;8536;52.150;11.572;2023-03-01T09:16:26;6.10;;;4.60;;
16839;SDS011;8536;52.150;11.572;2023-03-01T09:18:53;8.27;;;4.70;;
16839;SDS011;8536;52.150;11.572;2023-03-01T09:21:21;7.30;;;4.70;;
16839;SDS011;8536;52.150;11.572;2023-03-01T09:24:04;9.07;;;4.93;;
16839;SDS011;8536;52.150;11.572;2023-03-01T09:26:31;12.57;;;5.33;;
16839;SDS011;8536;52.150;11.572;2023-03-01T09:28:58;7.07;;;5.13;;
16839;SDS011;8536;52.150;11.572;2023-03-01T09:31:25;7.73;;;5.00;;
16839;SDS011;8536;52.150;11.572;2023-03-01T09:33:52;9.43;;;5.10;;
16839;SDS011;8536;52.150;11.572;2023-03-01T09:36:21;7.67;;;5.20;;
16839;SDS011;8536;52.150;11.572;2023-03-01T09:38:49;11.23;;;5.93;;
16839;SDS011;8536;52.150;11.572;2023-03-01T09:43:53;8.97;;;5.80;;
16839;SDS011;8536;52.150;11.572;2023-03-01T09:46:24;9.70;;;5.73;;
16839;SDS011;8536;52.150;11.572;2023-03-01T09:48:55;8.90;;;5.57;;
16839;SDS011;8536;52.150;11.572;2023-03-01T09:51:27;11.13;;;5.57;;
16839;SDS011;8536;52.150;11.572;2023-03-01T09:53:57;7.87;;;5.47;;
16839;SDS011;8536;52.150;11.572;2023-03-01T09:59:09;7.97;;;5.03;;
16839;SDS011;8536;52.150;11.572;2023-03-01T10:01:43;8.50;;;5.00;;
16839;SDS011;8536;52.150;11.572;2023-03-01T10:04:41;9.67;;;4.90;;
16839;SDS011;8536;52.150;11.572;2023-03-01T10:09:40;8.57;;;4.73;;
16839;SDS011;8536;52.150;11.572;2023-03-01T10:12:09;11.13;;;5.00;;
16839;SDS011;8536;52.150;11.572;2023-03-01T10:14:39;7.90;;;4.93;;
16839;SDS011;8536;52.150;11.572;2023-03-01T10:17:30;8.50;;;4.90;;
16839;SDS011;8536;52.150;11.572;2023-03-01T10:20:13;7.30;;;5.23;;
16839;SDS011;8536;52.150;11.572;2023-03-01T10:22:41;7.80;;;4.47;;
16839;SDS011;8536;52.150;11.572;2023-03-01T10:25:08;9.77;;;5.50;;
16839;SDS011;8536;52.150;11.572;2023-03-01T10:30:22;6.77;;;4.47;;
16839;SDS011;8536;52.150;11.572;2023-03-01T10:32:58;5.83;;;4.60;;
16839;SDS011;8536;52.150;11.572;2023-03-01T10:35:27;7.93;;;4.63;;
16839;SDS011;8536;52.150;11.572;2023-03-01T10:38:02;9.43;;;4.53;;
16839;SDS011;8536;52.150;11.572;2023-03-01T10:40:34;7.10;;;4.30;;
16839;SDS011;8536;52.150;11.572;2023-03-01T10:43:05;5.57;;;4.40;;
16839;SDS011;8536;52.150;11.572;2023-03-01T10:45:33;7.30;;;4.73;;
16839;SDS011;8536;52.150;11.572;2023-03-01T10:48:23;6.97;;;4.57;;
16839;SDS011;8536;52.150;11.572;2023-03-01T10:53:28;8.13;;;4.93;;
16839;SDS011;8536;52.150;11.572;2023-03-01T10:56:17;5.20;;;4.17;;
16839;SDS011;8536;52.150;11.572;2023-03-01T10:58:57;6.03;;;4.00;;
16839;SDS011;8536;52.150;11.572;2023-03-01T11:01:29;7.53;;;4.23;;
16839;SDS011;8536;52.150;11.572;2023-03-01T11:06:34;6.77;;;4.13;;
16839;SDS011;8536;52.150;11.572;2023-03-01T11:09:21;7.90;;;4.53;;
16839;SDS011;8536;52.150;11.572;2023-03-01T11:11:52;6.60;;;4.20;;
16839;SDS011;8536;52.150;11.572;2023-03-01T11:14:23;7.70;;;4.33;;
16839;SDS011;8536;52.150;11.572;2023-03-01T11:17:00;7.93;;;4.27;;
16839;SDS011;8536;52.150;11.572;2023-03-01T11:19:31;6.63;;;4.07;;
16839;SDS011;8536;52.150;11.572;2023-03-01T11:24:52;6.93;;;4.80;;
16839;SDS011;8536;52.150;11.572;2023-03-01T11:27:36;8.27;;;5.07;;
16839;SDS011;8536;52.150;11.572;2023-03-01T11:30:07;5.80;;;4.13;;
16839;SDS011;8536;52.150;11.572;2023-03-01T11:32:51;9.53;;;4.00;;
16839;SDS011;8536;52.150;11.572;2023-03-01T11:35:35;6.33;;;4.17;;
16839;SDS011;8536;52.150;11.572;2023-03-01T11:38:18;6.50;;;4.13;;
16839;SDS011;8536;52.150;11.572;2023-03-01T11:40:55;4.93;;;3.90;;
16839;SDS011;8536;52.150;11.572;2023-03-01T11:46:29;8.13;;;4.43;;
16839;SDS011;8536;52.150;11.572;2023-03-01T11:49:13;6.13;;;3.93;;
16839;SDS011;8536;52.150;11.572;2023-03-01T11:57:43;5.87;;;3.73;;
16839;SDS011;8536;52.150;11.572;2023-03-01T12:08:20;8.80;;;4.00;;
16839;SDS011;8536;52.150;11.572;2023-03-01T12:10:56;8.37;;;4.33;;
16839;SDS011;8536;52.150;11.572;2023-03-01T12:19:49;6.80;;;3.70;;
16839;SDS011;8536;52.150;11.572;2023-03-01T12:22:58;5.53;;;3.67;;
16839;SDS011;8536;52.150;11.572;2023-03-01T12:25:48;5.33;;;3.20;;
16839;SDS011;8536;52.150;11.572;2023-03-01T12:28:22;5.47;;;3.07;;
16839;SDS011;8536;52.150;11.572;2023-03-01T12:33:46;6.47;;;3.30;;
16839;SDS011;8536;52.150;11.572;2023-03-01T12:38:58;5.93;;;3.10;;
16839;SDS011;8536;52.150;11.572;2023-03-01T12:41:39;5.77;;;3.63;;
16839;SDS011;8536;52.150;11.572;2023-03-01T12:50:23;7.37;;;3.60;;
16839;SDS011;8536;52.150;11.572;2023-03-01T12:57:57;6.77;;;3.63;;
16839;SDS011;8536;52.150;11.572;2023-03-01T13:00:39;5.07;;;3.33;;
16839;SDS011;8536;52.150;11.572;2023-03-01T13:03:17;5.67;;;3.70;;
16839;SDS011;8536;52.150;11.572;2023-03-01T13:06:02;4.73;;;3.40;;
16839;SDS011;8536;52.150;11.572;2023-03-01T13:11:23;6.43;;;3.73;;
16839;SDS011;8536;52.150;11.572;2023-03-01T13:13:50;5.73;;;3.40;;
16839;SDS011;8536;52.150;11.572;2023-03-01T13:16:20;5.33;;;3.33;;
16839;SDS011;8536;52.150;11.572;2023-03-01T13:18:47;6.67;;;3.90;;
16839;SDS011;8536;52.150;11.572;2023-03-01T13:21:13;6.03;;;3.73;;
16839;SDS011;8536;52.150;11.572;2023-03-01T13:23:55;5.77;;;3.47;;
16839;SDS011;8536;52.150;11.572;2023-03-01T13:26:22;4.97;;;3.17;;
16839;SDS011;8536;52.150;11.572;2023-03-01T13:28:55;5.43;;;3.60;;
16839;SDS011;8536;52.150;11.572;2023-03-01T13:33:53;5.33;;;3.30;;
16839;SDS011;8536;52.150;11.572;2023-03-01T13:39:04;5.87;;;3.40;;
16839;SDS011;8536;52.150;11.572;2023-03-01T13:44:20;5.70;;;3.50;;
16839;SDS011;8536;52.150;11.572;2023-03-01T13:46:56;3.93;;;2.80;;
16839;SDS011;8536;52.150;11.572;2023-03-01T13:49:27;3.90;;;3.00;;
16839;SDS011;8536;52.150;11.572;2023-03-01T13:57:41;5.90;;;3.00;;
16839;SDS011;8536;52.150;11.572;2023-03-01T14:03:08;5.07;;;2.80;;
16839;SDS011;8536;52.150;11.572;2023-03-01T14:05:37;6.27;;;3.03;;
16839;SDS011;8536;52.150;11.572;2023-03-01T14:08:05;4.07;;;2.97;;
16839;SDS011;8536;52.150;11.572;2023-03-01T14:10:50;6.73;;;3.50;;
16839;SDS011;8536;52.150;11.572;2023-03-01T14:16:33;10.17;;;2.70;;
16839;SDS011;8536;52.150;11.572;2023-03-01T14:19:08;4.37;;;2.97;;
16839;SDS011;8536;52.150;11.572;2023-03-01T14:22:04;4.40;;;3.27;;
16839;SDS011;8536;52.150;11.572;2023-03-01T14:25:29;4.77;;;2.87;;
16839;SDS011;8536;52.150;11.572;2023-03-01T14:27:51;4.53;;;2.70;;
16839;SDS011;8536;52.150;11.572;2023-03-01T14:30:23;3.43;;;2.63;;
16839;SDS011;8536;52.150;11.572;2023-03-01T14:35:22;4.47;;;3.07;;
16839;SDS011;8536;52.150;11.572;2023-03-01T14:37:54;4.17;;;3.07;;
16839;SDS011;8536;52.150;11.572;2023-03-01T14:40:25;4.30;;;2.80;;
16839;SDS011;8536;52.150;11.572;2023-03-01T14:42:53;3.83;;;2.57;;
16839;SDS011;8536;52.150;11.572;2023-03-01T14:45:23;3.50;;;2.60;;
16839;SDS011;8536;52.150;11.572;2023-03-01T14:47:52;2.90;;;2.30;;
16839;SDS011;8536;52.150;11.572;2023-03-01T14:50:32;4.10;;;3.07;;
16839;SDS011;8536;52.150;11.572;2023-03-01T14:53:04;4.37;;;3.03;;
16839;SDS011;8536;52.150;11.572;2023-03-01T14:55:35;5.87;;;3.03;;
16839;SDS011;8536;52.150;11.572;2023-03-01T14:58:05;3.67;;;2.73;;
16839;SDS011;8536;52.150;11.572;2023-03-01T15:00:33;4.50;;;2.47;;
16839;SDS011;8536;52.150;11.572;2023-03-01T15:03:06;4.37;;;2.30;;
16839;SDS011;8536;52.150;11.572;2023-03-01T15:05:40;6.07;;;2.73;;
16839;SDS011;8536;52.150;11.572;2023-03-01T15:08:07;4.57;;;2.70;;
16839;SDS011;8536;52.150;11.572;2023-03-01T15:10:56;5.47;;;2.90;;
16839;SDS011;8536;52.150;11.572;2023-03-01T15:13:34;3.60;;;2.90;;
16839;SDS011;8536;52.150;11.572;2023-03-01T15:16:06;4.73;;;2.60;;
16839;SDS011;8536;52.150;11.572;2023-03-01T15:18:35;4.63;;;3.07;;
16839;SDS011;8536;52.150;11.572;2023-03-01T15:21:13;4.57;;;2.90;;
16839;SDS011;8536;52.150;11.572;2023-03-01T15:23:47;4.93;;;2.70;;
16839;SDS011;8536;52.150;11.572;2023-03-01T15:28:57;4.00;;;2.60;;
16839;SDS011;8536;52.150;11.572;2023-03-01T15:31:26;3.73;;;2.40;;
16839;SDS011;8536;52.150;11.572;2023-03-01T15:36:54;3.77;;;2.57;;
16839;SDS011;8536;52.150;11.572;2023-03-01T15:39:36;3.57;;;2.40;;
16839;SDS011;8536;52.150;11.572;2023-03-01T15:42:11;2.43;;;2.00;;
16839;SDS011;8536;52.150;11.572;2023-03-01T15:45:22;3.47;;;2.50;;
16839;SDS011;8536;52.150;11.572;2023-03-01T15:47:55;3.70;;;2.30;;
16839;SDS011;8536;52.150;11.572;2023-03-01T15:50:28;3.63;;;1.77;;
16839;SDS011;8536;52.150;11.572;2023-03-01T15:52:59;2.90;;;2.17;;
16839;SDS011;8536;52.150;11.572;2023-03-01T15:55:28;4.07;;;2.37;;
16839;SDS011;8536;52.150;11.572;2023-03-01T15:58:00;6.77;;;3.37;;
16839;SDS011;8536;52.150;11.572;2023-03-01T16:00:30;4.10;;;2.63;;
16839;SDS011;8536;52.150;11.572;2023-03-01T16:02:56;7.93;;;4.10;;
16839;SDS011;8536;52.150;11.572;2023-03-01T16:07:51;8.17;;;4.97;;
16839;SDS011;8536;52.150;11.572;2023-03-01T16:10:18;7.23;;;4.13;;
16839;SDS011;8536;52.150;11.572;2023-03-01T16:12:45;3.90;;;3.17;;
16839;SDS011;8536;52.150;11.572;2023-03-01T16:15:15;3.43;;;2.67;;
16839;SDS011;8536;52.150;11.572;2023-03-01T16:17:44;2.57;;;1.63;;
16839;SDS011;8536;52.150;11.572;2023-03-01T16:20:11;3.67;;;2.30;;
16839;SDS011;8536;52.150;11.572;2023-03-01T16:22:48;5.30;;;2.40;;
16839;SDS011;8536;52.150;11.572;2023-03-01T16:25:15;4.60;;;2.47;;
16839;SDS011;8536;52.150;11.572;2023-03-01T16:27:43;12.37;;;3.00;;
16839;SDS011;8536;52.150;11.572;2023-03-01T16:30:11;4.17;;;2.77;;
16839;SDS011;8536;52.150;11.572;2023-03-01T16:32:40;3.67;;;2.23;;
16839;SDS011;8536;52.150;11.572;2023-03-01T16:35:07;3.70;;;2.40;;
16839;SDS011;8536;52.150;11.572;2023-03-01T16:37:35;2.93;;;1.73;;
16839;SDS011;8536;52.150;11.572;2023-03-01T16:40:03;3.17;;;2.37;;
16839;SDS011;8536;52.150;11.572;2023-03-01T16:42:34;5.00;;;2.27;;
16839;SDS011;8536;52.150;11.572;2023-03-01T16:45:01;4.30;;;2.17;;